sensor_id;sensor_type;location;lat;lon;timestamp;pressure;altitude;pressure_sealevel;temperature;humidity
63883;BME280;50047;50.596;30.466;2023-06-22T00:01:23;99610.87;;;20.39;56.48
63883;BME280;50047;50.596;30.466;2023-06-22T00:03:51;99610.80;;;20.37;56.34
63883;BME280;50047;50.596;30.466;2023-06-22T00:06:19;99611.39;;;20.35;56.31
63883;BME280;50047;50.596;30.466;2023-06-22T00:08:47;99605.33;;;20.34;56.12
63883;BME280;50047;50.596;30.466;2023-06-22T00:11:15;99607.56;;;20.32;56.28
63883;BME280;50047;50.596;30.466;2023-06-22T00:13:42;99607.55;;;20.31;56.39
63883;BME280;50047;50.596;30.466;2023-06-22T00:16:10;99601.56;;;20.30;55.97
63883;BME280;50047;50.596;30.466;2023-06-22T00:18:38;99602.17;;;20.33;55.74
63883;BME280;50047;50.596;30.466;2023-06-22T00:21:06;99604.58;;;20.38;55.44
63883;BME280;50047;50.596;30.466;2023-06-22T00:23:34;99605.82;;;20.42;55.55
63883;BME280;50047;50.596;30.466;2023-06-22T00:26:02;99609.69;;;20.41;55.62
63883;BME280;50047;50.596;30.466;2023-06-22T00:28:30;99613.73;;;20.40;55.74
63883;BME280;50047;50.596;30.466;2023-06-22T00:30:57;99613.95;;;20.37;55.85
63883;BME280;50047;50.596;30.466;2023-06-22T00:33:26;99612.18;;;20.35;55.75
63883;BME280;50047;50.596;30.466;2023-06-22T00:35:54;99615.91;;;20.34;55.91
63883;BME280;50047;50.596;30.466;2023-06-22T00:38:21;99614.46;;;20.29;56.30
63883;BME280;50047;50.596;30.466;2023-06-22T00:40:49;99615.79;;;20.24;56.29
63883;BME280;50047;50.596;30.466;2023-06-22T00:43:17;99620.65;;;20.20;56.32
63883;BME280;50047;50.596;30.466;2023-06-22T00:45:44;99623.54;;;20.20;57.04
63883;BME280;50047;50.596;30.466;2023-06-22T00:48:13;99617.08;;;20.22;56.64
63883;BME280;50047;50.596;30.466;2023-06-22T00:50:42;99620.05;;;20.26;57.48
63883;BME280;50047;50.596;30.466;2023-06-22T00:53:10;99621.20;;;20.32;57.87
63883;BME280;50047;50.596;30.466;2023-06-22T00:55:42;99623.63;;;20.37;57.96
63883;BME280;50047;50.596;30.466;2023-06-22T00:58:19;99620.67;;;20.35;58.13
63883;BME280;50047;50.596;30.466;2023-06-22T01:00:49;99620.21;;;20.30;57.83
63883;BME280;50047;50.596;30.466;2023-06-22T01:03:17;99624.63;;;20.25;57.05
63883;BME280;50047;50.596;30.466;2023-06-22T01:05:46;99625.98;;;20.26;56.66
63883;BME280;50047;50.596;30.466;2023-06-22T01:08:41;99623.80;;;20.26;56.74
63883;BME280;50047;50.596;30.466;2023-06-22T01:11:18;99627.31;;;20.18;57.30
63883;BME280;50047;50.596;30.466;2023-06-22T01:14:20;99626.76;;;20.12;56.97
63883;BME280;50047;50.596;30.466;2023-06-22T01:16:51;99624.82;;;20.06;57.00
63883;BME280;50047;50.596;30.466;2023-06-22T01:19:46;99624.99;;;20.05;56.83
63883;BME280;50047;50.596;30.466;2023-06-22T01:22:16;99630.54;;;20.06;56.91
63883;BME280;50047;50.596;30.466;2023-06-22T01:25:22;99632.65;;;20.02;57.23
63883;BME280;50047;50.596;30.466;2023-06-22T01:30:29;99638.75;;;19.90;57.35
63883;BME280;50047;50.596;30.466;2023-06-22T01:32:58;99637.68;;;19.84;57.51
63883;BME280;50047;50.596;30.466;2023-06-22T01:35:26;99641.30;;;19.80;57.52
63883;BME280;50047;50.596;30.466;2023-06-22T01:37:55;99642.36;;;19.79;57.44
63883;BME280;50047;50.596;30.466;2023-06-22T01:40:23;99641.82;;;19.78;56.93
63883;BME280;50047;50.596;30.466;2023-06-22T01:42:57;99638.05;;;19.85;56.34
63883;BME280;50047;50.596;30.466;2023-06-22T01:45:25;99639.02;;;19.90;56.24
63883;BME280;50047;50.596;30.466;2023-06-22T01:47:54;99633.92;;;19.94;55.73
63883;BME280;50047;50.596;30.466;2023-06-22T01:50:22;99632.59;;;19.99;55.56
63883;BME280;50047;50.596;30.466;2023-06-22T01:52:50;99634.84;;;20.05;55.57
63883;BME280;50047;50.596;30.466;2023-06-22T01:55:17;99636.29;;;20.10;55.64
63883;BME280;50047;50.596;30.466;2023-06-22T01:57:48;99638.66;;;20.15;55.44
63883;BME280;50047;50.596;30.466;2023-06-22T02:00:20;99635.48;;;20.23;55.33
63883;BME280;50047;50.596;30.466;2023-06-22T02:05:39;99633.30;;;20.53;54.75
63883;BME280;50047;50.596;30.466;2023-06-22T02:08:23;99633.58;;;20.75;54.56
63883;BME280;50047;50.596;30.466;2023-06-22T02:10:52;99627.55;;;20.99;54.26
63883;BME280;50047;50.596;30.466;2023-06-22T02:13:24;99625.23;;;21.20;54.01
63883;BME280;50047;50.596;30.466;2023-06-22T02:15:52;99622.78;;;21.46;53.75
63883;BME280;50047;50.596;30.466;2023-06-22T02:18:20;99618.82;;;21.75;53.36
63883;BME280;50047;50.596;30.466;2023-06-22T02:20:48;99618.02;;;22.04;53.00
63883;BME280;50047;50.596;30.466;2023-06-22T02:23:16;99621.04;;;22.36;52.72
63883;BME280;50047;50.596;30.466;2023-06-22T02:25:43;99623.64;;;22.69;52.17
63883;BME280;50047;50.596;30.466;2023-06-22T02:28:11;99629.36;;;23.02;51.78
63883;BME280;50047;50.596;30.466;2023-06-22T02:30:39;99628.93;;;23.35;51.17
63883;BME280;50047;50.596;30.466;2023-06-22T02:33:07;99628.14;;;23.69;50.33
63883;BME280;50047;50.596;30.466;2023-06-22T02:35:35;99629.46;;;24.05;50.10
63883;BME280;50047;50.596;30.466;2023-06-22T02:38:04;99622.92;;;24.38;49.46
63883;BME280;50047;50.596;30.466;2023-06-22T02:40:31;99622.93;;;24.73;48.99
63883;BME280;50047;50.596;30.466;2023-06-22T02:42:59;99620.50;;;25.08;47.79
63883;BME280;50047;50.596;30.466;2023-06-22T02:45:30;99619.69;;;25.41;47.40
63883;BME280;50047;50.596;30.466;2023-06-22T02:47:58;99621.11;;;25.74;46.74
63883;BME280;50047;50.596;30.466;2023-06-22T02:50:26;99621.13;;;26.07;46.20
63883;BME280;50047;50.596;30.466;2023-06-22T02:52:54;99616.85;;;26.46;46.34
63883;BME280;50047;50.596;30.466;2023-06-22T02:55:22;99622.28;;;26.89;45.06
63883;BME280;50047;50.596;30.466;2023-06-22T02:57:54;99627.78;;;27.29;44.56
63883;BME280;50047;50.596;30.466;2023-06-22T03:00:22;99631.67;;;27.72;43.53
63883;BME280;50047;50.596;30.466;2023-06-22T03:02:50;99635.13;;;28.14;43.26
63883;BME280;50047;50.596;30.466;2023-06-22T03:05:18;99632.90;;;28.54;42.31
63883;BME280;50047;50.596;30.466;2023-06-22T03:07:47;99630.42;;;28.92;41.73
63883;BME280;50047;50.596;30.466;2023-06-22T03:10:15;99633.13;;;29.27;41.16
63883;BME280;50047;50.596;30.466;2023-06-22T03:12:43;99631.40;;;29.55;40.63
63883;BME280;50047;50.596;30.466;2023-06-22T03:15:12;99633.17;;;29.87;39.04
63883;BME280;50047;50.596;30.466;2023-06-22T03:17:40;99636.04;;;30.24;39.30
63883;BME280;50047;50.596;30.466;2023-06-22T03:20:09;99637.94;;;30.59;38.43
63883;BME280;50047;50.596;30.466;2023-06-22T03:22:39;99638.41;;;31.06;37.42
63883;BME280;50047;50.596;30.466;2023-06-22T03:25:08;99641.66;;;31.61;37.00
63883;BME280;50047;50.596;30.466;2023-06-22T03:27:44;99646.12;;;32.15;36.15
63883;BME280;50047;50.596;30.466;2023-06-22T03:30:12;99647.56;;;32.63;35.53
63883;BME280;50047;50.596;30.466;2023-06-22T03:32:40;99646.05;;;33.19;35.54
63883;BME280;50047;50.596;30.466;2023-06-22T03:35:08;99640.41;;;33.72;34.17
63883;BME280;50047;50.596;30.466;2023-06-22T03:37:36;99634.10;;;34.22;33.15
63883;BME280;50047;50.596;30.466;2023-06-22T03:40:05;99637.11;;;34.69;32.34
63883;BME280;50047;50.596;30.466;2023-06-22T03:42:34;99642.17;;;35.16;31.71
63883;BME280;50047;50.596;30.466;2023-06-22T03:45:04;99639.00;;;35.57;31.00
63883;BME280;50047;50.596;30.466;2023-06-22T03:47:32;99645.30;;;35.93;30.41
63883;BME280;50047;50.596;30.466;2023-06-22T03:50:00;99642.96;;;36.30;30.05
63883;BME280;50047;50.596;30.466;2023-06-22T03:52:31;99647.14;;;36.71;29.21
63883;BME280;50047;50.596;30.466;2023-06-22T03:54:59;99647.45;;;37.09;29.13
63883;BME280;50047;50.596;30.466;2023-06-22T03:57:26;99649.67;;;37.49;28.67
63883;BME280;50047;50.596;30.466;2023-06-22T03:59:56;99652.17;;;37.90;28.05
63883;BME280;50047;50.596;30.466;2023-06-22T04:02:25;99653.73;;;38.28;27.49
63883;BME280;50047;50.596;30.466;2023-06-22T04:04:53;99655.77;;;38.67;27.00
63883;BME280;50047;50.596;30.466;2023-06-22T04:07:21;99654.98;;;39.00;26.66
63883;BME280;50047;50.596;30.466;2023-06-22T04:09:49;99658.88;;;39.34;26.11
63883;BME280;50047;50.596;30.466;2023-06-22T04:12:16;99659.00;;;39.65;25.81
63883;BME280;50047;50.596;30.466;2023-06-22T04:14:45;99660.27;;;39.97;25.53
63883;BME280;50047;50.596;30.466;2023-06-22T04:17:13;99663.46;;;40.26;25.42
63883;BME280;50047;50.596;30.466;2023-06-22T04:19:45;99662.16;;;40.59;24.86
63883;BME280;50047;50.596;30.466;2023-06-22T04:22:12;99665.35;;;40.89;24.34
63883;BME280;50047;50.596;30.466;2023-06-22T04:24:40;99669.75;;;41.20;24.40
63883;BME280;50047;50.596;30.466;2023-06-22T04:27:08;99676.85;;;41.57;24.24
63883;BME280;50047;50.596;30.466;2023-06-22T04:29:37;99676.41;;;41.93;23.87
63883;BME280;50047;50.596;30.466;2023-06-22T04:32:06;99678.92;;;42.30;23.98
63883;BME280;50047;50.596;30.466;2023-06-22T04:34:34;99681.55;;;42.71;23.71
63883;BME280;50047;50.596;30.466;2023-06-22T04:37:02;99676.99;;;43.09;23.25
63883;BME280;50047;50.596;30.466;2023-06-22T04:39:29;99678.63;;;43.45;23.22
63883;BME280;50047;50.596;30.466;2023-06-22T04:41:58;99680.30;;;43.78;22.75
63883;BME280;50047;50.596;30.466;2023-06-22T04:44:30;99681.89;;;44.05;22.48
63883;BME280;50047;50.596;30.466;2023-06-22T04:46:59;99681.77;;;44.29;21.93
63883;BME280;50047;50.596;30.466;2023-06-22T04:49:36;99681.02;;;44.50;22.11
63883;BME280;50047;50.596;30.466;2023-06-22T04:52:06;99685.26;;;44.82;21.37
63883;BME280;50047;50.596;30.466;2023-06-22T04:54:36;99686.64;;;45.07;21.03
63883;BME280;50047;50.596;30.466;2023-06-22T04:57:06;99687.58;;;45.39;21.24
63883;BME280;50047;50.596;30.466;2023-06-22T04:59:38;99688.55;;;45.75;20.64
63883;BME280;50047;50.596;30.466;2023-06-22T05:02:10;99690.31;;;46.09;20.64
63883;BME280;50047;50.596;30.466;2023-06-22T05:04:38;99692.16;;;46.41;20.67
63883;BME280;50047;50.596;30.466;2023-06-22T05:07:07;99694.02;;;46.63;20.31
63883;BME280;50047;50.596;30.466;2023-06-22T05:09:35;99692.41;;;46.78;19.90
63883;BME280;50047;50.596;30.466;2023-06-22T05:12:03;99693.42;;;46.99;19.61
63883;BME280;50047;50.596;30.466;2023-06-22T05:14:35;99696.14;;;47.28;18.99
63883;BME280;50047;50.596;30.466;2023-06-22T05:17:03;99695.23;;;47.55;18.75
63883;BME280;50047;50.596;30.466;2023-06-22T05:19:31;99693.19;;;47.90;18.50
63883;BME280;50047;50.596;30.466;2023-06-22T05:22:02;99689.30;;;48.19;18.33
63883;BME280;50047;50.596;30.466;2023-06-22T05:24:30;99686.41;;;48.46;18.12
63883;BME280;50047;50.596;30.466;2023-06-22T05:26:58;99686.27;;;48.83;17.94
63883;BME280;50047;50.596;30.466;2023-06-22T05:29:25;99686.01;;;49.16;17.58
63883;BME280;50047;50.596;30.466;2023-06-22T05:31:54;99689.96;;;49.28;17.38
63883;BME280;50047;50.596;30.466;2023-06-22T05:34:21;99686.25;;;49.53;17.86
63883;BME280;50047;50.596;30.466;2023-06-22T05:36:50;99685.33;;;49.83;17.17
63883;BME280;50047;50.596;30.466;2023-06-22T05:39:17;99682.15;;;49.99;16.82
63883;BME280;50047;50.596;30.466;2023-06-22T05:41:46;99678.27;;;50.23;16.94
63883;BME280;50047;50.596;30.466;2023-06-22T05:44:14;99676.27;;;50.52;16.58
63883;BME280;50047;50.596;30.466;2023-06-22T05:46:43;99673.10;;;50.69;16.13
63883;BME280;50047;50.596;30.466;2023-06-22T05:49:16;99673.05;;;50.82;16.05
63883;BME280;50047;50.596;30.466;2023-06-22T05:51:43;99674.91;;;50.95;15.99
63883;BME280;50047;50.596;30.466;2023-06-22T05:54:11;99669.64;;;51.00;15.70
63883;BME280;50047;50.596;30.466;2023-06-22T05:56:41;99671.06;;;51.09;15.31
63883;BME280;50047;50.596;30.466;2023-06-22T05:59:09;99670.44;;;51.26;15.00
63883;BME280;50047;50.596;30.466;2023-06-22T06:01:36;99667.30;;;51.51;14.89
63883;BME280;50047;50.596;30.466;2023-06-22T06:04:04;99665.66;;;51.81;14.48
63883;BME280;50047;50.596;30.466;2023-06-22T06:06:32;99668.60;;;51.97;14.23
63883;BME280;50047;50.596;30.466;2023-06-22T06:09:05;99666.55;;;52.11;14.01
63883;BME280;50047;50.596;30.466;2023-06-22T06:11:33;99665.17;;;52.31;13.39
63883;BME280;50047;50.596;30.466;2023-06-22T06:14:01;99662.98;;;52.47;13.61
63883;BME280;50047;50.596;30.466;2023-06-22T06:16:29;99659.91;;;52.64;13.66
63883;BME280;50047;50.596;30.466;2023-06-22T06:18:59;99652.20;;;52.72;13.55
63883;BME280;50047;50.596;30.466;2023-06-22T06:21:26;99656.07;;;52.65;13.47
63883;BME280;50047;50.596;30.466;2023-06-22T06:23:57;99655.84;;;52.60;13.43
63883;BME280;50047;50.596;30.466;2023-06-22T06:26:26;99650.19;;;52.60;12.95
63883;BME280;50047;50.596;30.466;2023-06-22T06:28:57;99646.27;;;52.57;13.31
63883;BME280;50047;50.596;30.466;2023-06-22T06:31:25;99646.45;;;52.60;13.37
63883;BME280;50047;50.596;30.466;2023-06-22T06:33:55;99648.73;;;52.60;13.35
63883;BME280;50047;50.596;30.466;2023-06-22T06:36:23;99652.77;;;52.28;13.64
63883;BME280;50047;50.596;30.466;2023-06-22T06:38:50;99656.79;;;51.94;13.82
63883;BME280;50047;50.596;30.466;2023-06-22T06:41:19;99656.06;;;51.61;14.02
63883;BME280;50047;50.596;30.466;2023-06-22T06:43:46;99651.17;;;51.31;14.12
63883;BME280;50047;50.596;30.466;2023-06-22T06:46:15;99652.16;;;51.04;14.39
63883;BME280;50047;50.596;30.466;2023-06-22T06:48:43;99653.11;;;50.97;14.72
63883;BME280;50047;50.596;30.466;2023-06-22T06:51:10;99650.98;;;50.78;15.04
63883;BME280;50047;50.596;30.466;2023-06-22T06:53:38;99645.59;;;50.62;15.10
63883;BME280;50047;50.596;30.466;2023-06-22T06:56:06;99645.59;;;50.65;15.25
63883;BME280;50047;50.596;30.466;2023-06-22T06:58:34;99639.56;;;50.28;15.04
63883;BME280;50047;50.596;30.466;2023-06-22T07:01:02;99639.04;;;49.94;15.11
63883;BME280;50047;50.596;30.466;2023-06-22T07:03:30;99639.53;;;49.30;15.35
63883;BME280;50047;50.596;30.466;2023-06-22T07:05:59;99642.52;;;48.58;15.80
63883;BME280;50047;50.596;30.466;2023-06-22T07:08:27;99641.11;;;47.50;16.45
63883;BME280;50047;50.596;30.466;2023-06-22T07:10:56;99645.79;;;46.49;16.50
63883;BME280;50047;50.596;30.466;2023-06-22T07:13:24;99640.55;;;45.47;17.09
63883;BME280;50047;50.596;30.466;2023-06-22T07:15:52;99636.81;;;44.19;18.15
63883;BME280;50047;50.596;30.466;2023-06-22T07:18:19;99638.83;;;42.19;19.72
63883;BME280;50047;50.596;30.466;2023-06-22T07:20:47;99637.88;;;40.67;20.68
63883;BME280;50047;50.596;30.466;2023-06-22T07:23:16;99637.35;;;39.33;21.59
63883;BME280;50047;50.596;30.466;2023-06-22T07:25:44;99636.05;;;38.28;22.51
63883;BME280;50047;50.596;30.466;2023-06-22T07:28:11;99636.60;;;37.33;22.47
63883;BME280;50047;50.596;30.466;2023-06-22T07:30:39;99638.42;;;36.54;23.18
63883;BME280;50047;50.596;30.466;2023-06-22T07:33:07;99640.54;;;35.68;24.19
63883;BME280;50047;50.596;30.466;2023-06-22T07:35:36;99641.14;;;34.64;24.57
63883;BME280;50047;50.596;30.466;2023-06-22T07:38:04;99639.81;;;34.25;25.02
63883;BME280;50047;50.596;30.466;2023-06-22T07:40:33;99643.42;;;34.08;25.14
63883;BME280;50047;50.596;30.466;2023-06-22T07:43:02;99641.23;;;33.90;25.20
63883;BME280;50047;50.596;30.466;2023-06-22T07:45:31;99644.52;;;33.85;24.89
63883;BME280;50047;50.596;30.466;2023-06-22T07:48:01;99652.75;;;33.53;25.44
63883;BME280;50047;50.596;30.466;2023-06-22T07:50:29;99655.47;;;32.90;26.05
63883;BME280;50047;50.596;30.466;2023-06-22T07:52:57;99653.30;;;32.44;26.52
63883;BME280;50047;50.596;30.466;2023-06-22T07:55:25;99649.19;;;32.00;27.27
63883;BME280;50047;50.596;30.466;2023-06-22T07:57:53;99650.39;;;31.71;27.48
63883;BME280;50047;50.596;30.466;2023-06-22T08:00:21;99652.54;;;31.37;28.25
63883;BME280;50047;50.596;30.466;2023-06-22T08:02:49;99652.00;;;31.23;28.84
63883;BME280;50047;50.596;30.466;2023-06-22T08:05:17;99658.38;;;31.01;29.00
63883;BME280;50047;50.596;30.466;2023-06-22T08:07:49;99655.56;;;30.74;29.06
63883;BME280;50047;50.596;30.466;2023-06-22T08:10:18;99652.30;;;30.55;29.49
63883;BME280;50047;50.596;30.466;2023-06-22T08:12:46;99655.20;;;30.46;30.41
63883;BME280;50047;50.596;30.466;2023-06-22T08:15:14;99658.62;;;30.30;30.74
63883;BME280;50047;50.596;30.466;2023-06-22T08:17:41;99653.64;;;29.89;31.56
63883;BME280;50047;50.596;30.466;2023-06-22T08:20:10;99653.41;;;29.94;31.26
63883;BME280;50047;50.596;30.466;2023-06-22T08:22:41;99651.94;;;30.07;31.34
63883;BME280;50047;50.596;30.466;2023-06-22T08:25:11;99651.77;;;30.14;31.13
63883;BME280;50047;50.596;30.466;2023-06-22T08:27:38;99654.15;;;30.24;31.03
63883;BME280;50047;50.596;30.466;2023-06-22T08:30:08;99652.63;;;30.10;31.38
63883;BME280;50047;50.596;30.466;2023-06-22T08:32:38;99651.63;;;29.98;31.41
63883;BME280;50047;50.596;30.466;2023-06-22T08:35:06;99648.27;;;30.04;31.61
63883;BME280;50047;50.596;30.466;2023-06-22T08:37:36;99647.85;;;30.02;31.71
63883;BME280;50047;50.596;30.466;2023-06-22T08:40:08;99649.48;;;30.06;31.51
63883;BME280;50047;50.596;30.466;2023-06-22T08:42:40;99651.74;;;29.94;32.07
63883;BME280;50047;50.596;30.466;2023-06-22T08:45:09;99646.69;;;29.74;32.50
63883;BME280;50047;50.596;30.466;2023-06-22T08:47:37;99650.02;;;29.68;32.75
63883;BME280;50047;50.596;30.466;2023-06-22T08:50:06;99646.12;;;29.55;32.35
63883;BME280;50047;50.596;30.466;2023-06-22T08:52:36;99648.91;;;29.56;32.53
63883;BME280;50047;50.596;30.466;2023-06-22T08:55:06;99646.67;;;29.66;32.06
63883;BME280;50047;50.596;30.466;2023-06-22T08:57:34;99640.47;;;29.82;31.79
63883;BME280;50047;50.596;30.466;2023-06-22T09:00:02;99640.09;;;29.90;31.29
63883;BME280;50047;50.596;30.466;2023-06-22T09:02:32;99637.70;;;29.85;31.17
63883;BME280;50047;50.596;30.466;2023-06-22T09:05:03;99639.13;;;29.97;30.80
63883;BME280;50047;50.596;30.466;2023-06-22T09:07:31;99632.86;;;30.02;30.80
63883;BME280;50047;50.596;30.466;2023-06-22T09:10:00;99634.38;;;30.03;30.82
63883;BME280;50047;50.596;30.466;2023-06-22T09:12:31;99638.05;;;30.01;31.04
63883;BME280;50047;50.596;30.466;2023-06-22T09:15:00;99637.95;;;29.96;31.38
63883;BME280;50047;50.596;30.466;2023-06-22T09:17:28;99640.98;;;29.92;32.37
63883;BME280;50047;50.596;30.466;2023-06-22T09:19:56;99635.84;;;29.86;32.46
63883;BME280;50047;50.596;30.466;2023-06-22T09:22:24;99632.73;;;29.81;32.43
63883;BME280;50047;50.596;30.466;2023-06-22T09:24:56;99635.54;;;29.72;32.66
63883;BME280;50047;50.596;30.466;2023-06-22T09:27:26;99632.76;;;29.67;32.61
63883;BME280;50047;50.596;30.466;2023-06-22T09:29:54;99632.18;;;29.66;32.90
63883;BME280;50047;50.596;30.466;2023-06-22T09:32:22;99628.98;;;29.71;32.88
63883;BME280;50047;50.596;30.466;2023-06-22T09:34:50;99628.54;;;29.80;33.11
63883;BME280;50047;50.596;30.466;2023-06-22T09:37:17;99624.78;;;29.93;32.89
63883;BME280;50047;50.596;30.466;2023-06-22T09:39:45;99622.83;;;30.01;32.67
63883;BME280;50047;50.596;30.466;2023-06-22T09:42:13;99624.63;;;30.08;32.06
63883;BME280;50047;50.596;30.466;2023-06-22T09:44:41;99622.45;;;30.18;31.92
63883;BME280;50047;50.596;30.466;2023-06-22T09:47:08;99620.24;;;30.28;31.94
63883;BME280;50047;50.596;30.466;2023-06-22T09:49:36;99623.39;;;30.35;31.96
63883;BME280;50047;50.596;30.466;2023-06-22T09:52:15;99621.58;;;30.45;32.21
63883;BME280;50047;50.596;30.466;2023-06-22T09:54:43;99622.16;;;30.54;31.75
63883;BME280;50047;50.596;30.466;2023-06-22T09:57:11;99620.56;;;30.61;31.39
63883;BME280;50047;50.596;30.466;2023-06-22T09:59:38;99616.95;;;30.62;30.99
63883;BME280;50047;50.596;30.466;2023-06-22T10:02:09;99618.78;;;30.68;30.34
63883;BME280;50047;50.596;30.466;2023-06-22T10:04:37;99617.21;;;30.74;29.54
63883;BME280;50047;50.596;30.466;2023-06-22T10:07:07;99612.73;;;30.80;29.17
63883;BME280;50047;50.596;30.466;2023-06-22T10:09:35;99611.46;;;30.80;28.81
63883;BME280;50047;50.596;30.466;2023-06-22T10:12:03;99607.64;;;30.82;28.91
63883;BME280;50047;50.596;30.466;2023-06-22T10:14:31;99604.52;;;30.84;28.69
63883;BME280;50047;50.596;30.466;2023-06-22T10:16:59;99598.46;;;30.90;28.65
63883;BME280;50047;50.596;30.466;2023-06-22T10:19:27;99600.89;;;30.94;28.43
63883;BME280;50047;50.596;30.466;2023-06-22T10:21:54;99594.89;;;31.00;28.47
63883;BME280;50047;50.596;30.466;2023-06-22T10:24:23;99593.46;;;31.09;28.03
63883;BME280;50047;50.596;30.466;2023-06-22T10:26:50;99586.45;;;31.10;28.15
63883;BME280;50047;50.596;30.466;2023-06-22T10:29:18;99580.25;;;31.11;27.75
63883;BME280;50047;50.596;30.466;2023-06-22T10:31:46;99580.30;;;31.10;27.59
63883;BME280;50047;50.596;30.466;2023-06-22T10:34:13;99579.54;;;31.03;28.31
63883;BME280;50047;50.596;30.466;2023-06-22T10:36:41;99578.52;;;30.92;29.52
63883;BME280;50047;50.596;30.466;2023-06-22T10:39:09;99577.28;;;30.83;29.51
63883;BME280;50047;50.596;30.466;2023-06-22T10:41:37;99575.29;;;30.81;29.71
63883;BME280;50047;50.596;30.466;2023-06-22T10:44:04;99570.24;;;30.82;29.89
63883;BME280;50047;50.596;30.466;2023-06-22T10:46:32;99571.56;;;30.86;29.88
63883;BME280;50047;50.596;30.466;2023-06-22T10:49:00;99571.84;;;30.84;30.03
63883;BME280;50047;50.596;30.466;2023-06-22T10:51:28;99567.27;;;30.79;29.85
63883;BME280;50047;50.596;30.466;2023-06-22T10:53:56;99562.95;;;30.85;29.83
63883;BME280;50047;50.596;30.466;2023-06-22T10:56:23;99560.66;;;30.90;29.89
63883;BME280;50047;50.596;30.466;2023-06-22T10:58:51;99554.91;;;30.97;29.79
63883;BME280;50047;50.596;30.466;2023-06-22T11:01:20;99554.80;;;31.10;29.37
63883;BME280;50047;50.596;30.466;2023-06-22T11:03:53;99553.06;;;31.26;29.34
63883;BME280;50047;50.596;30.466;2023-06-22T11:06:21;99557.58;;;31.34;28.97
63883;BME280;50047;50.596;30.466;2023-06-22T11:08:48;99553.02;;;31.36;29.22
63883;BME280;50047;50.596;30.466;2023-06-22T11:11:33;99548.52;;;31.24;29.13
63883;BME280;50047;50.596;30.466;2023-06-22T11:14:00;99547.45;;;31.05;28.85
63883;BME280;50047;50.596;30.466;2023-06-22T11:16:28;99543.64;;;30.87;29.29
63883;BME280;50047;50.596;30.466;2023-06-22T11:18:56;99543.17;;;30.87;29.56
63883;BME280;50047;50.596;30.466;2023-06-22T11:21:23;99546.05;;;31.01;29.59
63883;BME280;50047;50.596;30.466;2023-06-22T11:23:51;99542.30;;;31.12;29.23
63883;BME280;50047;50.596;30.466;2023-06-22T11:26:19;99540.33;;;31.24;29.07
63883;BME280;50047;50.596;30.466;2023-06-22T11:28:48;99540.23;;;31.31;29.04
63883;BME280;50047;50.596;30.466;2023-06-22T11:31:16;99539.98;;;31.30;28.92
63883;BME280;50047;50.596;30.466;2023-06-22T11:33:53;99540.41;;;31.19;29.18
63883;BME280;50047;50.596;30.466;2023-06-22T11:36:20;99541.37;;;30.99;29.47
63883;BME280;50047;50.596;30.466;2023-06-22T11:38:48;99536.19;;;30.73;29.63
63883;BME280;50047;50.596;30.466;2023-06-22T11:41:16;99527.95;;;30.52;29.93
63883;BME280;50047;50.596;30.466;2023-06-22T11:43:44;99532.58;;;30.51;29.97
63883;BME280;50047;50.596;30.466;2023-06-22T11:46:12;99533.05;;;30.50;29.88
63883;BME280;50047;50.596;30.466;2023-06-22T11:48:40;99531.36;;;30.49;30.11
63883;BME280;50047;50.596;30.466;2023-06-22T11:51:08;99528.02;;;30.51;29.72
63883;BME280;50047;50.596;30.466;2023-06-22T11:53:36;99531.34;;;30.60;29.64
63883;BME280;50047;50.596;30.466;2023-06-22T11:56:04;99534.60;;;30.73;29.78
63883;BME280;50047;50.596;30.466;2023-06-22T11:58:34;99540.56;;;30.87;29.61
63883;BME280;50047;50.596;30.466;2023-06-22T12:01:02;99538.98;;;31.03;29.34
63883;BME280;50047;50.596;30.466;2023-06-22T12:03:29;99536.14;;;31.25;29.10
63883;BME280;50047;50.596;30.466;2023-06-22T12:05:59;99531.30;;;31.42;29.03
63883;BME280;50047;50.596;30.466;2023-06-22T12:08:28;99530.43;;;31.49;28.40
63883;BME280;50047;50.596;30.466;2023-06-22T12:11:05;99529.98;;;31.51;28.45
63883;BME280;50047;50.596;30.466;2023-06-22T12:13:33;99532.55;;;31.48;28.81
63883;BME280;50047;50.596;30.466;2023-06-22T12:16:01;99533.01;;;31.46;28.66
63883;BME280;50047;50.596;30.466;2023-06-22T12:18:29;99530.95;;;31.45;28.52
63883;BME280;50047;50.596;30.466;2023-06-22T12:20:56;99532.36;;;31.45;28.66
63883;BME280;50047;50.596;30.466;2023-06-22T12:23:24;99529.92;;;31.46;28.65
63883;BME280;50047;50.596;30.466;2023-06-22T12:25:52;99526.05;;;31.47;28.64
63883;BME280;50047;50.596;30.466;2023-06-22T12:28:19;99526.70;;;31.47;28.26
63883;BME280;50047;50.596;30.466;2023-06-22T12:30:47;99523.73;;;31.43;27.93
63883;BME280;50047;50.596;30.466;2023-06-22T12:33:15;99520.87;;;31.41;28.00
63883;BME280;50047;50.596;30.466;2023-06-22T12:35:43;99518.71;;;31.40;28.27
63883;BME280;50047;50.596;30.466;2023-06-22T12:38:12;99514.40;;;31.36;28.47
63883;BME280;50047;50.596;30.466;2023-06-22T12:40:40;99511.29;;;31.33;28.93
63883;BME280;50047;50.596;30.466;2023-06-22T12:43:07;99510.38;;;31.36;28.77
63883;BME280;50047;50.596;30.466;2023-06-22T12:45:35;99502.95;;;31.42;28.74
63883;BME280;50047;50.596;30.466;2023-06-22T12:48:03;99498.11;;;31.39;28.23
63883;BME280;50047;50.596;30.466;2023-06-22T12:50:31;99496.45;;;31.40;28.30
63883;BME280;50047;50.596;30.466;2023-06-22T12:52:59;99492.63;;;31.44;28.26
63883;BME280;50047;50.596;30.466;2023-06-22T12:55:29;99493.77;;;31.55;28.15
63883;BME280;50047;50.596;30.466;2023-06-22T12:57:57;99492.28;;;31.68;27.99
63883;BME280;50047;50.596;30.466;2023-06-22T13:00:25;99493.98;;;31.80;28.44
63883;BME280;50047;50.596;30.466;2023-06-22T13:02:52;99495.31;;;31.86;27.65
63883;BME280;50047;50.596;30.466;2023-06-22T13:07:04;99490.75;;;31.81;27.63